Time;durP1;ratioP1;P1;durP2;ratioP2;P2;SDS_P1;SDS_P2;PMS_P1;PMS_P2;Temp;Humidity;BMP_temperature;BMP_pressure;BME280_temperature;BME280_humidity;BME280_pressure;Samples;Min_cycle;Max_cycle;Signal;HPM_P1;HPM_P2
2022/04/16 00:01:27;;;;;;;30.65;17.02;;;;;;;5.87;75.97;101211.90;2077304;85;33606;-66
2022/04/16 00:04:29;;;;;;;27.20;17.07;;;;;;;5.85;76.38;101223.00;2093837;85;29279;-63
2022/04/16 00:07:31;;;;;;;32.38;15.98;;;;;;;5.80;75.98;101221.72;2093929;85;27601;-62
2022/04/16 00:10:35;;;;;;;31.07;17.57;;;;;;;5.77;76.27;101227.97;2055900;85;28677;-62
2022/04/16 00:13:37;;;;;;;25.10;16.00;;;;;;;5.71;76.36;101224.52;2055931;86;31034;-64
2022/04/16 00:16:39;;;;;;;25.40;15.28;;;;;;;5.63;76.46;101232.61;2055862;85;34068;-65
2022/04/16 00:19:41;;;;;;;23.12;14.60;;;;;;;5.56;76.33;101236.24;2056078;86;29331;-65
2022/04/16 00:22:43;;;;;;;17.45;12.35;;;;;;;5.48;76.03;101235.02;2055928;86;27717;-62
2022/04/16 00:25:47;;;;;;;21.07;14.65;;;;;;;5.42;76.20;101247.94;2054614;86;29672;-65
2022/04/16 00:28:52;;;;;;;26.75;15.58;;;;;;;5.35;76.00;101239.64;2056037;86;31750;-64
2022/04/16 00:31:54;;;;;;;24.77;14.30;;;;;;;5.32;75.98;101240.53;2055943;86;33306;-63
2022/04/16 00:34:56;;;;;;;21.48;13.08;;;;;;;5.32;76.25;101247.64;2055948;86;29700;-64
2022/04/16 00:37:58;;;;;;;19.48;12.93;;;;;;;5.29;76.12;101242.36;2050823;86;27668;-63
2022/04/16 00:41:04;;;;;;;22.75;12.80;;;;;;;5.27;76.18;101250.80;2055552;86;29375;-63
2022/04/16 00:44:08;;;;;;;18.62;12.40;;;;;;;5.23;75.97;101255.27;2055965;86;30251;-64
2022/04/16 00:47:12;;;;;;;18.07;11.33;;;;;;;5.20;75.79;101256.63;2056087;86;32972;-64
2022/04/16 00:50:14;;;;;;;17.82;10.65;;;;;;;5.17;75.76;101260.65;2055984;86;30092;-64
2022/04/16 00:53:16;;;;;;;19.30;10.78;;;;;;;5.15;75.73;101265.98;2055989;86;27707;-63
2022/04/16 00:56:18;;;;;;;17.32;11.38;;;;;;;5.11;75.82;101270.90;2055473;86;29336;-65
2022/04/16 00:59:20;;;;;;;17.42;11.03;;;;;;;5.09;75.55;101277.14;2036529;85;31535;-63
2022/04/16 01:02:22;;;;;;;18.42;11.20;;;;;;;5.06;75.45;101278.49;2086644;85;34189;-66
2022/04/16 01:05:25;;;;;;;16.23;10.13;;;;;;;5.02;75.33;101273.20;2078819;85;30600;-64
2022/04/16 01:08:30;;;;;;;14.93;10.08;;;;;;;4.98;75.31;101277.25;2056856;85;27723;-63
2022/04/16 01:11:33;;;;;;;11.33;7.80;;;;;;;4.97;75.20;101282.13;2052654;86;29047;-62
2022/04/16 01:14:37;;;;;;;15.45;8.45;;;;;;;4.96;75.41;101286.57;2052946;86;31622;-63
2022/04/16 01:17:40;;;;;;;10.98;8.38;;;;;;;4.94;75.10;101295.00;2054548;86;34159;-66
2022/04/16 01:20:44;;;;;;;12.37;7.50;;;;;;;4.94;75.09;101300.73;2052984;85;29388;-64
2022/04/16 01:23:45;;;;;;;15.30;7.40;;;;;;;4.92;74.86;101295.89;2021969;88;27685;-66
2022/04/16 01:26:49;;;;;;;9.60;6.95;;;;;;;4.89;74.67;101306.09;2021676;87;30039;-65
2022/04/16 01:29:53;;;;;;;10.53;6.28;;;;;;;4.86;74.41;101303.04;2045060;85;31470;-65
2022/04/16 01:32:55;;;;;;;8.90;5.90;;;;;;;4.84;74.36;101303.50;2052558;86;32770;-63
2022/04/16 01:35:56;;;;;;;7.55;5.78;;;;;;;4.85;74.40;101315.88;2053487;86;30240;-64
2022/04/16 01:38:59;;;;;;;8.93;5.70;;;;;;;4.85;74.11;101317.20;2053321;86;28222;-61
2022/04/16 01:42:00;;;;;;;14.05;6.65;;;;;;;4.82;73.97;101324.30;2055203;86;29109;-62
2022/04/16 01:45:05;;;;;;;6.90;5.42;;;;;;;4.80;73.95;101326.11;2054154;85;31408;-64
2022/04/16 01:48:07;;;;;;;13.08;5.78;;;;;;;4.80;73.87;101327.44;2053368;86;34105;-64
2022/04/16 01:51:09;;;;;;;9.33;4.95;;;;;;;4.78;73.80;101336.73;2052946;86;29247;-63
2022/04/16 01:54:10;;;;;;;6.28;4.60;;;;;;;4.76;73.31;101335.86;2053048;86;27825;-64
2022/04/16 01:57:12;;;;;;;12.45;6.03;;;;;;;4.74;73.42;101336.77;2053448;85;28562;-65
2022/04/16 02:00:14;;;;;;;7.53;4.97;;;;;;;4.71;73.37;101339.88;2057582;85;31429;-65
2022/04/16 02:03:16;;;;;;;8.75;5.55;;;;;;;4.70;73.39;101345.22;2059682;85;33786;-63
2022/04/16 02:06:19;;;;;;;7.90;5.85;;;;;;;4.71;73.45;101340.34;2042220;86;29156;-66
2022/04/16 02:09:21;;;;;;;9.38;5.50;;;;;;;4.73;73.61;101349.15;2036520;86;27709;-62
2022/04/16 02:12:23;;;;;;;9.30;4.87;;;;;;;4.71;73.20;101353.16;2057804;86;29467;-65
2022/04/16 02:15:24;;;;;;;9.80;4.85;;;;;;;4.69;72.92;101353.61;2050879;86;31067;-62
2022/04/16 02:18:27;;;;;;;8.65;4.70;;;;;;;4.68;72.82;101357.16;2036481;87;33549;-66
2022/04/16 02:21:32;;;;;;;7.62;4.60;;;;;;;4.65;72.65;101357.17;2036277;87;29472;-65
2022/04/16 02:24:33;;;;;;;5.62;4.37;;;;;;;4.64;72.53;101359.86;2035977;87;27704;-64
2022/04/16 02:27:35;;;;;;;8.85;4.70;;;;;;;4.60;72.06;101355.45;2036355;87;29264;-63
2022/04/16 02:30:37;;;;;;;8.08;3.95;;;;;;;4.55;71.99;101362.13;2035947;87;30878;-64
2022/04/16 02:33:39;;;;;;;7.20;4.70;;;;;;;4.55;72.01;101364.33;2047390;85;33621;-66
2022/04/16 02:36:41;;;;;;;7.30;4.30;;;;;;;4.50;71.75;101359.95;2072132;85;29091;-62
2022/04/16 02:39:43;;;;;;;9.03;3.80;;;;;;;4.46;71.70;101359.09;2071994;85;27635;-64
2022/04/16 02:42:45;;;;;;;7.03;3.98;;;;;;;4.45;71.85;101363.11;2071072;85;28658;-62
2022/04/16 02:49:08;;;;;;;7.87;3.98;;;;;;;4.44;71.69;101363.99;2039196;85;34231;-66
2022/04/16 02:52:10;;;;;;;8.48;3.70;;;;;;;4.39;71.29;101370.20;2057659;86;29958;-68
2022/04/16 02:55:15;;;;;;;5.28;4.00;;;;;;;4.35;71.30;101371.11;2040065;85;27723;-70
2022/04/16 02:58:15;;;;;;;5.75;4.08;;;;;;;4.32;71.16;101370.25;2045015;86;28679;-72
2022/04/16 03:01:18;;;;;;;7.03;4.50;;;;;;;4.30;71.52;101367.62;2054028;84;31144;-66
2022/04/16 03:04:19;;;;;;;6.92;4.53;;;;;;;4.29;71.21;101378.23;2049748;86;33791;-72
2022/04/16 03:07:21;;;;;;;7.25;3.77;;;;;;;4.24;71.00;101380.45;2048165;86;30375;-73
2022/04/16 03:10:24;;;;;;;6.70;3.98;;;;;;;4.20;71.05;101377.41;2050657;86;27630;-70
2022/04/16 03:13:25;;;;;;;6.53;4.10;;;;;;;4.17;70.89;101369.46;2050830;86;28463;-72
2022/04/16 03:19:47;;;;;;;5.15;3.87;;;;;;;4.11;71.12;101368.16;2048885;86;33027;-74
2022/04/16 03:22:49;;;;;;;6.17;3.90;;;;;;;4.09;71.12;101367.28;2050501;86;29096;-75
2022/04/16 03:25:53;;;;;;;6.50;4.47;;;;;;;4.04;70.83;101371.75;2050962;86;27668;-75
2022/04/16 03:28:55;;;;;;;6.65;3.40;;;;;;;3.99;70.69;101373.53;2050525;86;28670;-75
2022/04/16 03:31:57;;;;;;;9.40;4.10;;;;;;;3.90;70.55;101371.34;2048617;86;31093;-65
2022/04/16 03:34:59;;;;;;;6.10;3.67;;;;;;;3.86;70.65;101368.30;2050941;86;32978;-64
2022/04/16 03:38:02;;;;;;;7.05;3.55;;;;;;;3.83;70.78;101378.01;2050507;86;29476;-67
2022/04/16 03:41:06;;;;;;;4.45;3.47;;;;;;;3.78;70.79;101389.53;2050496;86;27737;-64
2022/04/16 03:44:08;;;;;;;7.28;3.62;;;;;;;3.77;70.87;101389.52;2049059;86;28791;-64
2022/04/16 03:47:11;;;;;;;6.17;3.72;;;;;;;3.76;70.80;101408.53;2050274;86;31116;-64
2022/04/16 03:50:13;;;;;;;6.47;3.92;;;;;;;3.77;70.88;101406.75;2050460;86;33627;-63
2022/04/16 03:53:15;;;;;;;8.28;3.90;;;;;;;3.79;71.00;101419.56;2049242;86;29685;-64
2022/04/16 04:02:57;;;;;;;5.12;3.25;;;;;;;3.79;70.61;101428.41;2044977;85;31757;-63
2022/04/16 04:06:01;;;;;;;7.25;3.80;;;;;;;3.80;70.78;101427.95;2050900;85;32938;-64
2022/04/16 04:09:03;;;;;;;6.70;3.33;;;;;;;3.82;70.76;101433.23;2070545;85;29335;-63
2022/04/16 04:12:11;;;;;;;6.45;3.77;;;;;;;3.83;70.62;101433.67;2048258;86;27734;-65
2022/04/16 04:15:13;;;;;;;6.58;3.85;;;;;;;3.84;70.76;101440.31;2029259;87;29247;-63
2022/04/16 04:18:15;;;;;;;8.53;3.80;;;;;;;3.84;70.53;101437.66;2031050;87;31046;-62
2022/04/16 04:21:16;;;;;;;6.28;3.45;;;;;;;3.82;70.53;101436.78;2031127;86;33689;-63
2022/04/16 04:24:18;;;;;;;8.20;3.58;;;;;;;3.80;70.62;101446.08;2030800;87;30015;-63
2022/04/16 04:27:20;;;;;;;5.20;3.40;;;;;;;3.82;70.64;101454.44;2054172;86;27686;-65
2022/04/16 04:30:22;;;;;;;5.72;3.72;;;;;;;3.80;70.55;101450.05;2065375;85;28854;-64
2022/04/16 04:33:24;;;;;;;7.12;3.72;;;;;;;3.82;70.57;101458.41;2046569;85;31570;-62
2022/04/16 04:36:26;;;;;;;6.67;3.45;;;;;;;3.85;70.64;101465.94;2034698;87;33735;-68
2022/04/16 04:39:28;;;;;;;6.40;3.83;;;;;;;3.88;70.37;101465.03;2068777;85;30195;-63
2022/04/16 04:42:33;;;;;;;8.13;3.47;;;;;;;3.88;70.39;101475.64;2063445;85;27749;-62
2022/04/16 04:45:35;;;;;;;8.25;4.00;;;;;;;3.94;70.66;101483.12;2061235;85;29522;-63
2022/04/16 04:48:37;;;;;;;7.87;3.85;;;;;;;3.96;70.32;101485.80;2051878;85;32272;-63
2022/04/16 04:51:40;;;;;;;8.28;3.92;;;;;;;3.97;70.38;101495.94;2034910;87;34206;-61
2022/04/16 04:54:42;;;;;;;4.50;3.35;;;;;;;3.98;70.39;101504.34;2059632;85;30231;-67
2022/04/16 04:57:44;;;;;;;6.92;4.00;;;;;;;4.00;70.37;101499.91;2040883;85;27732;-62
2022/04/16 05:00:45;;;;;;;7.92;3.95;;;;;;;3.99;70.37;101508.75;2014396;85;28365;-62
2022/04/16 05:03:48;;;;;;;6.53;4.37;;;;;;;3.99;70.49;101518.90;2091837;85;32250;-62
2022/04/16 05:06:50;;;;;;;8.18;3.58;;;;;;;3.98;70.38;101517.59;2075818;85;33592;-62
2022/04/16 05:09:51;;;;;;;9.95;4.70;;;;;;;3.97;70.39;101518.05;2064532;86;29456;-62
2022/04/16 05:12:58;;;;;;;7.35;4.80;;;;;;;3.97;70.46;101525.10;2067929;86;28224;-67
2022/04/16 05:15:59;;;;;;;10.23;4.50;;;;;;;3.99;70.49;101524.66;2067879;86;28644;-66
2022/04/16 05:19:01;;;;;;;7.75;3.98;;;;;;;4.00;70.26;101528.63;2072351;85;30842;-62
2022/04/16 05:22:04;;;;;;;5.33;4.17;;;;;;;3.97;70.24;101529.98;2087963;84;34100;-63
2022/04/16 05:25:07;;;;;;;8.20;4.67;;;;;;;3.94;70.33;101538.80;2107028;84;29367;-63
2022/04/16 05:28:09;;;;;;;8.10;4.30;;;;;;;3.93;70.37;101538.81;2080899;84;27725;-63
2022/04/16 05:31:11;;;;;;;17.67;7.28;;;;;;;3.95;70.38;101540.57;2072099;85;29887;-63
2022/04/16 05:34:19;;;;;;;7.00;4.67;;;;;;;3.92;70.32;101547.20;2089712;84;32168;-67
2022/04/16 05:37:21;;;;;;;7.72;4.75;;;;;;;3.95;70.53;101551.17;2100328;84;32995;-64
2022/04/16 05:40:24;;;;;;;8.28;4.62;;;;;;;3.96;70.53;101557.38;2073787;85;30706;-63
2022/04/16 05:43:26;;;;;;;9.18;4.20;;;;;;;4.02;70.59;101553.83;2076305;84;27709;-64
2022/04/16 05:46:28;;;;;;;10.68;4.50;;;;;;;4.08;70.54;101553.37;2092697;84;29254;-64
2022/04/16 05:49:30;;;;;;;8.75;4.22;;;;;;;4.14;70.51;101550.27;2098676;83;30831;-66
2022/04/16 05:52:32;;;;;;;8.60;4.92;;;;;;;4.19;70.38;101558.65;2074202;85;32998;-66
2022/04/16 05:55:53;;;;;;;5.90;4.70;;;;;;;4.26;70.45;101568.80;2070959;85;27683;-62
2022/04/16 05:58:54;;;;;;;8.25;4.87;;;;;;;4.33;70.37;101563.89;2071050;85;27719;-65
2022/04/16 06:01:56;;;;;;;8.85;5.15;;;;;;;4.35;70.09;101574.06;2084462;84;28696;-63
2022/04/16 06:04:59;;;;;;;10.43;5.08;;;;;;;4.34;70.25;101574.94;2094368;84;31173;-64
2022/04/16 06:08:01;;;;;;;12.55;5.53;;;;;;;4.37;70.27;101580.25;2083331;85;33047;-63
2022/04/16 06:11:04;;;;;;;8.55;5.30;;;;;;;4.38;70.30;101575.84;2100059;84;30118;-64
2022/04/16 06:14:06;;;;;;;7.85;5.37;;;;;;;4.42;70.30;101581.55;2070819;85;27734;-64
2022/04/16 06:17:08;;;;;;;10.08;5.33;;;;;;;4.45;70.23;101580.22;2070162;86;29388;-65
2022/04/16 06:20:11;;;;;;;7.03;4.90;;;;;;;4.46;70.08;101583.77;2069600;86;33224;-63
2022/04/16 06:23:14;;;;;;;8.60;5.85;;;;;;;4.52;70.21;101587.70;2070107;86;32972;-64
2022/04/16 06:26:15;;;;;;;8.68;5.85;;;;;;;4.54;70.10;101587.27;2070732;85;31584;-65
2022/04/16 06:29:17;;;;;;;10.58;5.78;;;;;;;4.60;70.13;101596.97;2071558;85;27642;-62
2022/04/16 06:32:19;;;;;;;9.50;5.20;;;;;;;4.70;70.06;101602.70;2071593;85;27673;-63
2022/04/16 06:35:21;;;;;;;7.47;5.25;;;;;;;4.77;69.80;101600.44;2070050;85;33188;-63
2022/04/16 06:38:23;;;;;;;9.60;5.80;;;;;;;4.86;69.75;101598.19;2070896;85;33971;-62
2022/04/16 06:41:24;;;;;;;8.88;5.70;;;;;;;4.93;69.75;101597.28;2071476;85;31524;-67
2022/04/16 06:44:27;;;;;;;10.45;6.45;;;;;;;5.09;69.83;101600.72;2071658;85;27665;-66
2022/04/16 06:47:29;;;;;;;7.25;5.17;;;;;;;5.30;69.79;101596.16;2071542;85;28691;-62
2022/04/16 06:50:31;;;;;;;11.60;5.67;;;;;;;5.49;69.16;101595.58;2070385;85;30973;-62
2022/04/16 06:53:33;;;;;;;9.43;5.05;;;;;;;5.64;69.03;101594.59;2070358;85;32945;-62
2022/04/16 06:56:34;;;;;;;8.98;5.10;;;;;;;5.84;68.68;101603.71;2071934;85;29551;-62
2022/04/16 06:59:37;;;;;;;8.38;4.97;;;;;;;5.96;67.90;101614.70;2071595;85;27642;-63
2022/04/16 07:02:39;;;;;;;10.53;5.15;;;;;;;6.01;67.71;101600.05;2060823;85;28722;-62
2022/04/16 07:05:41;;;;;;;5.92;4.25;;;;;;;6.15;67.85;101610.56;2050966;86;32481;-62
2022/04/16 07:08:43;;;;;;;8.08;5.28;;;;;;;6.20;67.63;101614.94;2050960;86;33590;-63
2022/04/16 07:11:45;;;;;;;11.10;5.70;;;;;;;6.18;66.86;101609.21;2050656;86;31474;-63
2022/04/16 07:14:47;;;;;;;7.65;5.22;;;;;;;6.19;66.91;101617.16;2048153;86;28312;-62
2022/04/16 07:17:49;;;;;;;7.10;4.85;;;;;;;6.34;67.29;101616.56;2013420;88;29725;-62
2022/04/16 07:20:50;;;;;;;7.47;5.08;;;;;;;6.54;66.87;101623.89;2017698;86;31888;-62
2022/04/16 07:23:55;;;;;;;12.85;5.67;;;;;;;6.70;66.83;101623.70;2047852;86;32995;-62
2022/04/16 07:26:58;;;;;;;7.92;6.08;;;;;;;6.78;66.54;101627.17;2035546;86;29499;-64
2022/04/16 07:30:00;;;;;;;9.40;5.97;;;;;;;6.77;65.17;101632.50;2051000;86;27868;-61
2022/04/16 07:33:02;;;;;;;12.30;5.83;;;;;;;6.82;65.98;101628.88;2047959;86;28671;-63
2022/04/16 07:36:04;;;;;;;8.53;5.62;;;;;;;7.15;66.04;101627.13;2046605;86;33219;-62
2022/04/16 07:39:06;;;;;;;7.85;4.95;;;;;;;7.72;65.90;101624.94;2050710;86;33976;-62
2022/04/16 07:42:08;;;;;;;6.78;4.90;;;;;;;8.60;65.68;101613.59;2047651;86;31497;-64
2022/04/16 07:45:10;;;;;;;5.97;4.47;;;;;;;9.02;63.90;101619.41;2049093;86;27691;-62
2022/04/16 07:48:12;;;;;;;5.15;4.00;;;;;;;9.64;62.85;101622.89;2047240;86;28821;-64
2022/04/16 07:51:13;;;;;;;6.15;3.80;;;;;;;10.40;60.68;101620.98;2057018;86;31057;-63
2022/04/16 07:54:16;;;;;;;5.97;4.42;;;;;;;10.56;60.40;101625.42;2064455;86;33596;-64
2022/04/16 07:57:18;;;;;;;4.45;3.85;;;;;;;10.29;58.06;101635.96;2064713;86;29375;-64
2022/04/16 08:00:20;;;;;;;4.55;3.47;;;;;;;9.97;58.77;101633.67;2039334;86;27914;-63
2022/04/16 08:03:22;;;;;;;6.28;3.77;;;;;;;10.00;59.91;101630.03;2032382;85;28725;-64
2022/04/16 08:06:23;;;;;;;5.90;3.27;;;;;;;10.21;58.60;101630.39;2032886;87;31057;-64
2022/04/16 08:09:25;;;;;;;10.68;5.30;;;;;;;10.23;57.50;101631.23;2033276;87;32933;-64
2022/04/16 08:12:27;;;;;;;4.10;3.70;;;;;;;10.43;57.83;101638.28;2055844;86;29344;-65
2022/04/16 08:15:29;;;;;;;5.12;4.30;;;;;;;10.87;57.88;101632.58;2054860;86;27749;-70
2022/04/16 08:18:32;;;;;;;9.45;4.03;;;;;;;10.92;56.53;101633.33;2055610;86;28630;-65
2022/04/16 08:21:34;;;;;;;7.50;4.28;;;;;;;10.82;56.85;101634.98;2022438;88;31106;-70
2022/04/16 08:24:41;;;;;;;5.95;3.05;;;;;;;10.59;56.59;101639.22;2022862;88;33005;-66
2022/04/16 08:27:50;;;;;;;4.80;3.50;;;;;;;10.61;54.81;101637.34;2022789;88;29757;-69
2022/04/16 08:30:54;;;;;;;3.00;2.58;;;;;;;10.33;55.06;101638.09;2046891;86;27707;-65
2022/04/16 08:33:56;;;;;;;5.75;3.20;;;;;;;10.13;55.01;101643.98;2048092;86;28654;-63
2022/04/16 08:36:58;;;;;;;6.90;3.12;;;;;;;10.27;53.70;101639.58;2032861;87;31152;-63
2022/04/16 08:40:00;;;;;;;5.28;2.62;;;;;;;10.47;52.66;101635.94;2055597;86;31894;-64
2022/04/16 08:43:02;;;;;;;6.10;2.98;;;;;;;10.80;51.81;101643.09;2055368;86;29370;-64
2022/04/16 08:46:05;;;;;;;6.17;2.58;;;;;;;11.11;50.73;101643.52;2053553;86;27771;-65
2022/04/16 08:49:07;;;;;;;6.28;2.72;;;;;;;10.87;47.67;101650.01;2020998;87;28659;-67
2022/04/16 08:52:10;;;;;;;3.08;2.77;;;;;;;10.39;49.27;101647.78;2020728;88;31104;-64
2022/04/16 08:55:12;;;;;;;3.35;3.02;;;;;;;10.01;50.02;101646.52;2049649;86;33602;-64
2022/04/16 08:58:14;;;;;;;4.20;2.58;;;;;;;9.94;50.42;101643.55;2054486;86;30701;-61
2022/04/16 09:01:17;;;;;;;2.45;2.00;;;;;;;10.08;50.16;101643.22;2055796;86;27751;-61
2022/04/16 09:04:22;;;;;;;3.30;2.33;;;;;;;10.12;49.36;101643.09;2083551;85;29479;-62
2022/04/16 09:07:24;;;;;;;5.20;3.37;;;;;;;10.44;51.63;101646.73;2078237;85;31086;-62
2022/04/16 09:10:28;;;;;;;4.20;3.12;;;;;;;10.81;49.32;101650.65;2056009;86;33334;-61
2022/04/16 09:13:30;;;;;;;3.95;2.67;;;;;;;10.64;50.69;101655.59;2055726;86;29393;-63
2022/04/16 09:16:32;;;;;;;4.42;2.98;;;;;;;10.46;49.35;101649.39;2055903;86;28162;-63
2022/04/16 09:19:34;;;;;;;3.55;2.47;;;;;;;10.16;50.54;101654.63;2055705;86;30747;-60
2022/04/16 09:22:38;;;;;;;4.10;2.45;;;;;;;10.06;49.25;101663.34;2055696;86;31107;-61
2022/04/16 09:25:43;;;;;;;3.87;2.63;;;;;;;10.09;49.07;101660.59;2056293;86;32987;-68
2022/04/16 09:28:44;;;;;;;4.53;2.70;;;;;;;10.39;50.09;101663.42;2063100;86;29374;-62
2022/04/16 09:31:49;;;;;;;5.42;3.10;;;;;;;10.58;49.02;101670.48;2072460;85;27719;-67
2022/04/16 09:34:54;;;;;;;5.60;3.50;;;;;;;10.76;50.56;101658.35;2096916;84;28702;-60
2022/04/16 09:37:59;;;;;;;;;;;;;;;11.05;49.44;101659.77;2096006;84;31941;-59
2022/04/16 09:41:07;;;;;;;4.03;2.25;;;;;;;10.93;49.34;101665.92;2045581;85;32929;-61
2022/04/16 09:44:25;;;;;;;5.30;2.65;;;;;;;10.72;48.93;101667.87;2071204;85;29485;-62
2022/04/16 09:47:34;;;;;;;5.40;2.27;;;;;;;10.53;49.36;101664.84;2074194;85;27727;-62
2022/04/16 09:50:39;;;;;;;2.15;1.87;;;;;;;10.62;49.83;101655.19;1931917;92;28784;-61
2022/04/16 09:53:42;;;;;;;4.08;2.52;;;;;;;10.53;48.73;101667.52;1995360;88;31697;-61
2022/04/16 09:56:49;;;;;;;3.20;2.83;;;;;;;10.40;48.74;101666.95;1992065;88;33034;-61
2022/04/16 09:59:53;;;;;;;4.15;2.30;;;;;;;10.54;49.29;101670.62;2001538;88;30243;-64
2022/04/16 10:02:56;;;;;;;2.87;1.98;;;;;;;10.60;48.87;101667.30;1966477;89;28008;-61
2022/04/16 10:06:00;;;;;;;3.67;2.35;;;;;;;10.55;49.02;101670.56;1976702;90;29104;-61
2022/04/16 10:09:17;;;;;;;2.27;1.80;;;;;;;10.43;47.61;101671.77;1976495;90;31175;-66
2022/04/16 10:15:23;;;;;;;3.40;1.65;;;;;;;10.47;48.58;101670.77;1976607;90;29958;-60
2022/04/16 10:18:25;;;;;;;2.15;1.95;;;;;;;10.56;47.96;101664.76;1976461;90;27758;-64
2022/04/16 10:21:33;;;;;;;3.12;2.00;;;;;;;10.56;47.97;101674.14;1976597;90;29501;-60
2022/04/16 10:24:35;;;;;;;2.98;1.98;;;;;;;10.53;48.58;101667.52;1976825;90;31274;-68
2022/04/16 10:27:41;;;;;;;4.58;2.00;;;;;;;10.62;48.94;101681.55;1975629;90;33797;-60
2022/04/16 10:30:52;;;;;;;4.05;1.77;;;;;;;10.85;47.98;101675.98;1976230;90;31494;-61
2022/04/16 10:34:11;;;;;;;2.55;1.80;;;;;;;10.99;46.86;101684.98;1976641;90;27806;-61
2022/04/16 10:37:23;;;;;;;2.83;2.02;;;;;;;10.78;46.49;101683.32;1976637;90;28715;-61
2022/04/16 10:40:25;;;;;;;4.83;2.22;;;;;;;10.77;46.48;101679.35;1976414;90;31028;-64
2022/04/16 10:43:31;;;;;;;3.33;2.35;;;;;;;10.97;47.35;101691.31;1976250;90;35117;-61
2022/04/16 10:46:44;;;;;;;6.22;2.40;;;;;;;10.95;46.10;101673.91;1982921;88;29370;-62
2022/04/16 10:49:48;;;;;;;4.53;2.65;;;;;;;10.84;46.82;101686.28;2039455;86;27695;-65
2022/04/16 10:53:02;;;;;;;3.72;2.20;;;;;;;10.87;47.12;101682.66;2058077;86;29073;-65
2022/04/16 10:56:15;;;;;;;3.60;2.27;;;;;;;10.99;44.96;101676.93;2057963;86;31090;-67
2022/04/16 10:59:18;;;;;;;3.92;2.58;;;;;;;11.08;45.53;101689.19;2057926;86;33553;-60
2022/04/16 11:02:26;;;;;;;4.83;2.90;;;;;;;11.10;45.98;101686.88;2058205;86;29910;-60
2022/04/16 11:05:36;;;;;;;4.50;2.85;;;;;;;11.22;45.70;101695.02;2073452;85;27770;-61
2022/04/16 11:08:40;;;;;;;5.78;2.85;;;;;;;11.29;46.10;101698.88;2092039;85;28924;-60
2022/04/16 11:11:43;;;;;;;4.85;2.65;;;;;;;11.40;46.37;101700.31;2065296;86;31085;-68
2022/04/16 11:14:46;;;;;;;3.60;2.50;;;;;;;11.43;45.94;101699.33;2069044;86;33018;-66
2022/04/16 11:17:50;;;;;;;4.42;2.67;;;;;;;11.39;45.37;101703.02;2067643;86;29387;-61
2022/04/16 11:20:56;;;;;;;3.17;2.40;;;;;;;11.37;45.25;101705.77;2037132;86;27670;-63
2022/04/16 11:24:03;;;;;;;3.25;2.37;;;;;;;11.15;43.35;101705.53;2073420;85;29326;-60
2022/04/16 11:36:51;;;;;;;6.08;3.00;;;;;;;11.19;45.92;101712.55;1995524;89;27686;-69
2022/04/16 11:40:08;;;;;;;4.25;3.00;;;;;;;11.13;46.17;101702.02;1995204;89;29295;-62
2022/04/16 11:43:13;;;;;;;3.65;3.20;;;;;;;11.17;45.46;101721.09;1994197;89;27833;-62
2022/04/16 11:46:15;;;;;;;3.80;2.72;;;;;;;11.03;44.03;101713.91;1995468;87;35155;-65
2022/04/16 11:49:17;;;;;;;3.25;2.30;;;;;;;10.91;44.54;101715.17;1995510;89;31526;-61
2022/04/16 11:52:27;;;;;;;6.58;2.40;;;;;;;10.90;45.12;101710.73;1995819;89;27770;-64
2022/04/16 11:55:29;;;;;;;2.65;2.45;;;;;;;11.06;44.39;101709.80;2026603;87;29302;-62
2022/04/16 11:58:31;;;;;;;4.60;2.72;;;;;;;11.05;44.00;101716.09;2010100;87;31016;-61
2022/04/16 12:01:34;;;;;;;3.83;2.45;;;;;;;11.00;45.75;101724.75;1997186;87;32995;-62
2022/04/16 12:04:42;;;;;;;2.95;2.17;;;;;;;10.95;44.75;101722.17;1997808;88;29294;-63
2022/04/16 12:07:48;;;;;;;3.80;2.60;;;;;;;10.87;44.56;101719.71;2023228;87;27780;-62
2022/04/16 12:10:51;;;;;;;5.35;2.45;;;;;;;10.92;44.91;101706.20;2045057;85;28645;-61
2022/04/16 12:13:54;;;;;;;3.02;2.70;;;;;;;11.06;44.68;101720.53;2080524;85;31114;-61
2022/04/16 12:17:02;;;;;;;4.22;2.55;;;;;;;11.18;45.27;101722.85;2049074;86;32986;-61
2022/04/16 12:20:10;;;;;;;3.05;2.67;;;;;;;11.24;45.02;101728.53;2055045;86;30361;-61
2022/04/16 12:23:22;;;;;;;4.47;2.90;;;;;;;11.12;43.94;101725.73;2050002;86;27648;-61
2022/04/16 12:26:24;;;;;;;4.90;2.83;;;;;;;11.02;44.51;101725.12;2055967;86;28667;-62
2022/04/16 12:29:30;;;;;;;6.62;3.50;;;;;;;11.02;43.84;101730.92;2055607;86;31840;-62
2022/04/16 12:32:33;;;;;;;7.75;4.20;;;;;;;11.07;44.45;101727.22;2057216;85;33798;-65
2022/04/16 12:35:40;;;;;;;4.47;2.83;;;;;;;11.19;44.08;101737.16;2071280;85;29392;-68
2022/04/16 12:38:41;;;;;;;6.58;2.83;;;;;;;11.22;44.43;101733.05;2073033;85;27739;-64
2022/04/16 12:41:43;;;;;;;4.35;2.55;;;;;;;11.23;44.68;101740.18;2054814;85;28642;-61
2022/04/16 12:44:45;;;;;;;4.95;2.58;;;;;;;11.22;44.58;101730.38;2055472;86;31103;-62
2022/04/16 12:47:47;;;;;;;4.25;2.33;;;;;;;11.10;42.90;101731.13;2055097;86;35210;-58
2022/04/16 12:50:49;;;;;;;4.33;2.60;;;;;;;10.98;42.78;101727.46;2055373;86;30473;-60
2022/04/16 12:53:51;;;;;;;5.40;2.50;;;;;;;11.04;43.36;101713.89;2047371;86;27822;-62
2022/04/16 12:56:52;;;;;;;3.85;2.72;;;;;;;11.03;43.57;101725.53;1997013;89;28629;-59
2022/04/16 12:59:54;;;;;;;2.85;2.27;;;;;;;11.03;44.44;101725.98;2055181;86;31093;-59
2022/04/16 13:02:56;;;;;;;3.37;2.40;;;;;;;11.02;44.11;101730.92;2055240;86;35115;-60
2022/04/16 13:05:58;;;;;;;5.15;3.02;;;;;;;10.98;44.01;101731.95;2051040;85;30132;-60
2022/04/16 13:09:02;;;;;;;6.22;2.87;;;;;;;10.94;42.65;101724.44;2051207;86;27798;-60
2022/04/16 13:12:03;;;;;;;2.37;2.12;;;;;;;10.90;42.53;101704.02;2049840;86;28641;-60
2022/04/16 13:15:07;;;;;;;5.65;2.90;;;;;;;11.09;43.57;101713.75;2050480;86;31104;-65
2022/04/16 13:18:09;;;;;;;3.85;2.45;;;;;;;11.19;42.91;101729.98;2050706;86;33121;-65
2022/04/16 13:21:12;;;;;;;4.20;2.70;;;;;;;11.14;42.75;101741.33;2050573;86;29873;-61
2022/04/16 13:24:15;;;;;;;6.92;2.52;;;;;;;11.03;43.23;101727.32;2045876;86;27614;-66
2022/04/16 13:27:17;;;;;;;3.12;2.30;;;;;;;10.97;43.78;101709.61;2050448;86;28690;-63
2022/04/16 13:30:20;;;;;;;4.03;2.22;;;;;;;11.06;44.22;101713.83;2048833;86;30976;-61
2022/04/16 13:33:22;;;;;;;3.35;2.10;;;;;;;11.22;44.15;101715.14;2048076;86;33331;-65
2022/04/16 13:36:24;;;;;;;4.42;2.87;;;;;;;11.30;42.72;101725.64;2059392;86;29312;-60
2022/04/16 13:42:46;;;;;;;6.08;3.00;;;;;;;11.03;43.47;101711.23;2035811;86;29909;-60
2022/04/16 13:45:48;;;;;;;5.10;2.30;;;;;;;10.95;43.16;101712.80;2048631;86;33228;-62
2022/04/16 13:48:50;;;;;;;3.58;2.25;;;;;;;10.94;42.93;101706.56;1994716;89;33019;-62
2022/04/16 13:51:52;;;;;;;3.27;2.20;;;;;;;11.08;42.77;101711.55;1995022;89;29407;-62
2022/04/16 13:54:54;;;;;;;6.15;3.10;;;;;;;11.23;42.55;101702.62;1994709;89;27773;-61
2022/04/16 13:57:57;;;;;;;4.25;2.77;;;;;;;11.35;42.61;101704.03;2050050;86;30862;-69
2022/04/16 14:00:59;;;;;;;2.47;2.25;;;;;;;11.38;43.01;101704.84;1998076;89;31175;-61
2022/04/16 14:04:03;;;;;;;3.77;2.15;;;;;;;11.37;42.77;101706.21;2052667;84;32976;-63
2022/04/16 14:07:07;;;;;;;3.60;2.25;;;;;;;11.23;42.78;101695.92;2060720;85;29311;-61
2022/04/16 14:10:09;;;;;;;4.12;2.37;;;;;;;11.17;42.30;101697.43;2027969;85;27683;-63
2022/04/16 14:13:11;;;;;;;3.10;2.25;;;;;;;11.15;42.28;101681.39;2034426;86;28920;-62
2022/04/16 14:16:14;;;;;;;5.10;3.10;;;;;;;11.14;42.03;101686.34;2057749;86;31044;-62
2022/04/16 14:19:16;;;;;;;2.25;2.02;;;;;;;11.20;42.70;101688.81;2056478;86;35100;-62
2022/04/16 14:22:18;;;;;;;2.45;1.90;;;;;;;11.20;41.52;101693.32;2057796;85;29377;-62
2022/04/16 14:25:21;;;;;;;4.25;2.12;;;;;;;11.18;41.93;101695.17;2044669;85;27695;-61
2022/04/16 14:28:24;;;;;;;6.53;4.15;;;;;;;11.10;41.93;101684.66;2071975;85;29419;-62
2022/04/16 14:31:26;;;;;;;4.10;2.50;;;;;;;11.01;40.59;101686.26;2071816;85;31765;-63
2022/04/16 14:34:28;;;;;;;4.10;2.87;;;;;;;10.98;41.14;101693.08;2052459;85;33992;-62
2022/04/16 14:37:32;;;;;;;5.10;2.25;;;;;;;10.96;41.69;101686.40;2035685;87;29468;-64
2022/04/16 14:40:35;;;;;;;3.67;3.05;;;;;;;10.99;42.13;101682.77;2036234;87;27768;-60
2022/04/16 14:43:53;;;;;;;4.87;2.47;;;;;;;11.03;42.58;101677.71;2066478;85;28630;-61